Weather observations for the past three days for
New Smyrna Beach Municipal Airport
Metric (Imperial)
Date Time (edt) Wind (kph) Vis. (km) Weather Sky Cond. Temperature (ºC) Relative Humidity Wind Chill (°C) Heat Index (°C) Pressure Precipitation (cm)
Air Dwpt 6 hour altimeter (cm) sea level (mb) 1 hr 3 hr 6 hr
Max. Min.
09 17:47 N 22 1.61 Rain Fog/Mist BKN003 24 24 100% 23 75.87 0.0
09 16:47 E 19 16.09 Thunderstorm in Vicinity BKN060 27 26 94% 31 75.87 0.0
09 15:47 E 15 16.09 Mostly Cloudy BKN060 29 26 84% 36 75.87 0.0
09 14:47 W 20 16.09 Partly Cloudy SCT030 32 22 55% 36 75.92 0.0
09 13:47 SW 20 16.09 Partly Cloudy SCT030 33 21 49% 36 75.97 0.0
09 12:47 W 17 G 28 16.09 Partly Cloudy SCT020 33 21 49% 36 75.95 0.0
09 11:47 SW 15 G 24 16.09 Fair CLR 31 22 59% 35 76 0.0
09 10:47 SW 11 16.09 Fair CLR 30 24 70% 35 76.02 0.0
09 09:47 S 7 16.09 Partly Cloudy SCT016 27 25 89% 31 76.02 0.0
09 08:47 E 6 16.09 Partly Cloudy SCT014 26 25 94% 28 76 0.0
09 07:47 E 6 16.09 Partly Cloudy SCT022 25 24 94% 26 76 0.0
09 06:47 NE 6 16.09 Overcast OVC015 24 24 100% 23 76 0.0
08 21:47 S 9 12.87 Partly Cloudy SCT003 SCT020 24 24 100% 23 76.1 0.0
08 20:47 E 19 9.66 Fog/Mist BKN003 OVC010 23 23 100% 76.02 0.0
08 19:47 NE 22 G 69 3.22 Thunderstorm Rain BKN010 25 24 94% 26 76.02 0.0
08 18:47 E 22 G 33 11.27 Mostly Cloudy BKN013 28 25 84% 33 75.92 0.0
08 17:47 E 22 11.27 A Few Clouds FEW040 28 25 84% 33 75.9 0.0
08 16:47 E 19 G 31 11.27 A Few Clouds FEW040 29 25 79% 35 75.92 0.0
08 15:47 E 19 G 31 11.27 A Few Clouds FEW040 29 25 79% 35 75.97 0.0
08 13:47 E 17 11.27 Partly Cloudy FEW065 SCT080 29 25 79% 35 76.07 0.0
08 12:47 W 17 11.27 Mostly Cloudy BKN030 29 25 79% 35 76.12 0.0
08 10:47 W 13 16.09 Partly Cloudy SCT030 28 25 84% 33 76.17 0.0
08 09:47 W 13 16.09 Mostly Cloudy BKN015 27 24 84% 30 76.17 0.0
08 08:47 W 13 16.09 A Few Clouds FEW019 25 24 94% 26 76.15 0.0
08 07:47 W 6 16.09 Fair CLR 23 23 100% 76.12 0.0
08 06:47 W 6 16.09 Fair CLR 21 21 100% 76.05 0.0
07 21:47 W 7 16.09 Fair CLR 27 14 45% 27 75.97 0.0
07 20:47 W 11 16.09 Fair CLR 28 13 40% 28 75.95 0.0
07 18:47 N 11 G 30 16.09 Fair CLR 33 18 41% 34 75.9 0.0
07 17:47 W 13 G 30 16.09 Fair CLR 35 17 34% 36 75.87 0.0
07 16:47 W 15 G 26 16.09 Fair CLR 35 17 34% 36 75.92 0.0
07 15:47 SW 20 G 35 16.09 A Few Clouds FEW 35 16 32% 35 75.95 0.0
07 14:47 SW 22 G 33 16.09 Fair CLR 35 18 36% 36 76 0.0
07 13:47 W 26 16.09 Fair CLR 34 19 41% 36 76.1 0.0
07 12:47 W 13 G 28 16.09 Fair CLR 33 22 52% 37 76.12 0.0
07 11:47 W 17 G 28 16.09 Fair CLR 31 22 59% 35 76.15 0.0
07 10:47 SW 19 16.09 Fair CLR 30 22 62% 33 76.2 0.0
07 09:47 SW 20 16.09 Fair CLR 27 22 74% 29 76.2 0.0
07 08:47 S 7 16.09 Fair CLR 24 22 89% 24 76.23 0.0
07 07:47 S 7 16.09 Fair CLR 21 21 100% 76.23 0.0
07 06:47 S 7 16.09 Fair CLR 20 20 100% 76.2 0.0
06 21:47 SE 17 16.09 Fair CLR 25 20 74% 26 76.2 0.0
06 20:47 S 17 16.09 Fair CLR 25 19 69% 26 76.17 0.0
06 19:47 SE 20 G 31 16.09 Fair CLR 26 20 70% 27 76.17 0.0
Date Time (edt) Wind (kph) Vis. (km) Weather Sky Cond. Air Dwpt Max. Min. Relative Humidity Wind Chill (°C) Heat Index (°C) altimeter (cm) sea level (mb) 1 hr 3 hr 6 hr
6 hour
Temperature (ºC) Pressure Precipitation (cm)